createdAt,value
2023-02-27T00:01:20.130Z,74.60
2023-02-27T00:03:47.790Z,74.65
2023-02-27T00:06:17.770Z,75.07
2023-02-27T00:08:46.828Z,75.37
2023-02-27T00:11:14.688Z,75.23
2023-02-27T00:13:42.535Z,75.05
2023-02-27T00:16:12.823Z,75.71
2023-02-27T00:18:40.710Z,75.25
2023-02-27T00:21:08.382Z,75.75
2023-02-27T00:23:36.261Z,75.59
2023-02-27T00:26:05.491Z,75.26
2023-02-27T00:28:33.094Z,75.45
2023-02-27T00:31:00.809Z,75.56
2023-02-27T00:33:28.533Z,75.31
2023-02-27T00:35:57.130Z,75.34
2023-02-27T00:38:27.174Z,75.72
2023-02-27T00:40:54.853Z,75.48
2023-02-27T00:43:23.778Z,75.82
2023-02-27T00:45:51.385Z,76.22
2023-02-27T00:48:19.087Z,76.06
2023-02-27T00:50:46.845Z,75.97
2023-02-27T00:53:14.502Z,76.24
2023-02-27T00:55:43.702Z,76.41
2023-02-27T00:58:11.451Z,75.99
2023-02-27T01:00:40.864Z,76.36
2023-02-27T01:03:08.453Z,76.03
2023-02-27T01:05:36.166Z,76.63
2023-02-27T01:08:03.742Z,76.84
2023-02-27T01:10:31.619Z,77.05
2023-02-27T01:12:59.404Z,77.28
2023-02-27T01:15:27.038Z,77.40
2023-02-27T01:17:56.126Z,77.08
2023-02-27T01:20:23.799Z,77.70
2023-02-27T01:22:51.466Z,77.85
2023-02-27T01:25:19.124Z,77.73
2023-02-27T01:27:46.784Z,78.22
2023-02-27T01:30:16.851Z,77.89
2023-02-27T01:32:44.598Z,77.66
2023-02-27T01:35:13.974Z,77.89
2023-02-27T01:37:41.568Z,78.08
2023-02-27T01:40:10.673Z,77.61
2023-02-27T01:42:38.305Z,77.89
2023-02-27T01:45:28.070Z,77.80
2023-02-27T01:47:59.782Z,77.53
2023-02-27T01:50:28.798Z,77.46
2023-02-27T01:52:59.234Z,77.89
2023-02-27T01:55:28.961Z,77.49
2023-02-27T01:57:56.930Z,77.60
2023-02-27T02:00:24.772Z,78.03
2023-02-27T02:02:58.124Z,78.00
2023-02-27T02:05:25.795Z,78.34
2023-02-27T02:07:54.864Z,78.16
2023-02-27T02:10:22.623Z,78.08
2023-02-27T02:12:50.933Z,78.05
2023-02-27T02:15:18.896Z,78.14
2023-02-27T02:18:01.011Z,78.06
2023-02-27T02:21:06.862Z,78.60
2023-02-27T02:23:53.402Z,78.15
2023-02-27T02:26:36.565Z,78.56
2023-02-27T02:29:52.827Z,78.67
2023-02-27T02:32:59.108Z,78.59
2023-02-27T02:36:20.271Z,78.55
2023-02-27T02:39:11.692Z,78.45
2023-02-27T02:41:50.287Z,78.36
2023-02-27T02:44:24.256Z,78.65
2023-02-27T02:47:00.682Z,78.31
2023-02-27T02:49:32.755Z,77.99
2023-02-27T02:52:03.736Z,77.57
2023-02-27T02:54:40.090Z,77.90
2023-02-27T02:57:11.066Z,77.73
2023-02-27T02:59:41.720Z,77.14
2023-02-27T03:02:11.945Z,76.78
2023-02-27T03:04:42.967Z,76.44
2023-02-27T03:07:13.743Z,76.44
2023-02-27T03:09:45.214Z,76.49
2023-02-27T03:12:17.075Z,76.25
2023-02-27T03:14:47.785Z,76.38
2023-02-27T03:17:18.947Z,76.14
2023-02-27T03:19:51.951Z,76.04
2023-02-27T03:22:23.604Z,75.79
2023-02-27T03:24:54.281Z,75.99
2023-02-27T03:27:22.955Z,75.55
2023-02-27T03:29:54.199Z,75.94
2023-02-27T03:32:25.414Z,76.09
2023-02-27T03:34:53.120Z,76.09
2023-02-27T03:37:29.056Z,76.35
2023-02-27T03:40:02.227Z,76.05
2023-02-27T03:42:34.975Z,76.30
2023-02-27T03:45:06.242Z,76.11
2023-02-27T03:47:34.091Z,76.26
2023-02-27T03:50:01.737Z,76.53
2023-02-27T03:52:30.705Z,76.40
2023-02-27T03:55:03.043Z,76.71
2023-02-27T03:57:32.052Z,76.79
2023-02-27T04:00:01.035Z,76.52
2023-02-27T04:02:29.030Z,76.30
2023-02-27T04:04:57.063Z,76.24
2023-02-27T04:07:32.659Z,76.13
2023-02-27T04:10:18.031Z,76.41
2023-02-27T04:13:11.364Z,76.66
2023-02-27T04:16:01.746Z,75.99
2023-02-27T04:18:39.855Z,76.26
2023-02-27T04:21:11.795Z,75.80
2023-02-27T04:23:42.794Z,76.29
2023-02-27T04:26:22.763Z,76.03
2023-02-27T04:29:06.434Z,75.55
2023-02-27T04:31:38.902Z,75.60
2023-02-27T04:34:09.728Z,75.55
2023-02-27T04:36:45.749Z,75.80
2023-02-27T04:39:28.813Z,75.70
2023-02-27T04:42:00.958Z,75.09
2023-02-27T04:44:30.003Z,75.34
2023-02-27T04:47:00.419Z,75.46
2023-02-27T04:49:31.566Z,75.39
2023-02-27T04:52:03.670Z,75.38
2023-02-27T04:54:33.787Z,75.41
2023-02-27T04:57:05.637Z,75.70
2023-02-27T04:59:39.160Z,75.38
2023-02-27T05:02:10.502Z,75.36
2023-02-27T05:04:40.206Z,75.41
2023-02-27T05:07:10.258Z,75.29
2023-02-27T05:09:41.469Z,75.84
2023-02-27T05:12:17.464Z,75.38
2023-02-27T05:14:49.241Z,75.69
2023-02-27T05:17:19.801Z,75.55
2023-02-27T05:19:48.034Z,75.25
2023-02-27T05:22:24.348Z,75.58
2023-02-27T05:24:56.160Z,75.64
2023-02-27T05:27:36.775Z,75.05
2023-02-27T05:30:06.518Z,75.97
2023-02-27T05:32:41.973Z,75.31
2023-02-27T05:35:14.816Z,75.70
2023-02-27T05:37:46.487Z,75.87
2023-02-27T05:40:17.588Z,75.55
2023-02-27T05:42:51.631Z,75.43
2023-02-27T05:45:21.860Z,76.18
2023-02-27T05:47:54.044Z,76.29
2023-02-27T05:50:25.905Z,76.07
2023-02-27T05:52:55.547Z,75.62
2023-02-27T05:55:26.401Z,75.92
2023-02-27T05:57:59.162Z,75.59
2023-02-27T06:00:32.368Z,76.33
2023-02-27T06:03:00.013Z,75.83
2023-02-27T06:05:28.599Z,76.50
2023-02-27T06:07:56.333Z,76.14
2023-02-27T06:10:24.949Z,76.52
2023-02-27T06:12:52.505Z,76.29
2023-02-27T06:15:23.010Z,76.47
2023-02-27T06:17:50.596Z,76.72
2023-02-27T06:20:18.715Z,76.47
2023-02-27T06:22:46.359Z,76.11
2023-02-27T06:25:14.222Z,76.45
2023-02-27T06:27:41.844Z,76.11
2023-02-27T06:30:10.716Z,76.43
2023-02-27T06:32:39.607Z,75.97
2023-02-27T06:35:08.048Z,75.99
2023-02-27T06:37:35.684Z,76.09
2023-02-27T06:40:05.766Z,75.83
2023-02-27T06:42:33.358Z,76.05
2023-02-27T06:45:00.930Z,76.03
2023-02-27T06:47:28.547Z,75.81
2023-02-27T06:49:57.771Z,75.90
2023-02-27T06:52:25.421Z,75.66
2023-02-27T06:54:53.024Z,75.01
2023-02-27T06:57:20.712Z,74.80
2023-02-27T06:59:48.250Z,74.93
2023-02-27T07:02:16.727Z,75.18
2023-02-27T07:04:44.588Z,74.25
2023-02-27T07:07:34.392Z,74.07
2023-02-27T07:10:02.200Z,73.67
2023-02-27T07:12:29.820Z,73.82
2023-02-27T07:14:57.421Z,73.63
2023-02-27T07:17:24.964Z,72.92
2023-02-27T07:19:52.567Z,73.40
2023-02-27T07:22:21.457Z,73.26
2023-02-27T07:24:49.055Z,73.19
2023-02-27T07:27:16.952Z,73.01
2023-02-27T07:29:44.516Z,72.54
2023-02-27T07:32:12.226Z,72.56
2023-02-27T07:34:39.796Z,72.46
2023-02-27T07:37:08.217Z,72.07
2023-02-27T07:39:37.232Z,72.46
2023-02-27T07:42:05.136Z,72.07
2023-02-27T07:44:33.029Z,72.38
2023-02-27T07:47:00.736Z,71.92
2023-02-27T07:49:28.479Z,72.11
2023-02-27T07:51:56.044Z,71.64
2023-02-27T07:54:23.803Z,71.05
2023-02-27T07:56:52.741Z,71.23
2023-02-27T07:59:20.310Z,71.18
2023-02-27T08:01:47.892Z,70.75
2023-02-27T08:04:15.492Z,70.43
2023-02-27T08:06:43.280Z,70.72
2023-02-27T08:09:11.473Z,70.59
2023-02-27T08:11:39.078Z,70.88
2023-02-27T08:14:08.101Z,70.17
2023-02-27T08:16:35.850Z,69.93
2023-02-27T08:19:03.506Z,68.91
2023-02-27T08:21:31.343Z,68.93
2023-02-27T08:23:59.045Z,69.38
2023-02-27T08:26:27.007Z,68.84
2023-02-27T08:28:54.719Z,68.15
2023-02-27T08:31:24.102Z,68.84
2023-02-27T08:34:01.146Z,68.55
2023-02-27T08:36:36.767Z,68.17
2023-02-27T08:39:04.763Z,68.45
2023-02-27T08:41:32.373Z,68.56
2023-02-27T08:44:00.001Z,67.83
2023-02-27T08:46:29.272Z,68.21
2023-02-27T08:48:57.083Z,68.75
2023-02-27T08:51:24.723Z,68.23
2023-02-27T08:53:52.898Z,68.64
2023-02-27T08:56:20.482Z,67.45
2023-02-27T08:58:48.115Z,67.85
2023-02-27T09:01:15.777Z,67.33
2023-02-27T09:03:44.735Z,67.56
2023-02-27T09:06:12.665Z,67.37
2023-02-27T09:08:40.459Z,67.09
2023-02-27T09:11:08.029Z,67.06
2023-02-27T09:13:35.629Z,66.76
2023-02-27T09:16:03.352Z,66.35
2023-02-27T09:18:30.926Z,66.04
2023-02-27T09:20:59.833Z,65.85
2023-02-27T09:23:27.444Z,66.65
2023-02-27T09:25:55.004Z,66.59
2023-02-27T09:28:22.640Z,67.05
2023-02-27T09:30:50.272Z,66.47
2023-02-27T09:33:17.858Z,67.13
2023-02-27T09:35:45.613Z,67.52
2023-02-27T09:38:14.693Z,66.79
2023-02-27T09:40:43.710Z,66.84
2023-02-27T09:43:15.433Z,66.25
2023-02-27T09:45:44.570Z,65.97
2023-02-27T09:48:16.708Z,65.88
2023-02-27T09:50:45.986Z,67.19
2023-02-27T09:53:17.073Z,67.10
2023-02-27T09:55:45.578Z,67.30
2023-02-27T09:58:25.736Z,67.76
2023-02-27T10:00:58.503Z,68.07
2023-02-27T10:03:38.806Z,67.57
2023-02-27T10:06:21.482Z,67.54
2023-02-27T10:08:56.492Z,67.83
2023-02-27T10:11:28.225Z,68.39
2023-02-27T10:14:00.993Z,67.86
2023-02-27T10:16:29.591Z,68.19
2023-02-27T10:19:00.024Z,67.65
2023-02-27T10:21:32.345Z,67.45
2023-02-27T10:24:07.676Z,67.96
2023-02-27T10:26:38.642Z,67.79
2023-02-27T10:29:16.436Z,66.88
2023-02-27T10:34:32.553Z,66.45
2023-02-27T10:37:02.248Z,67.28
2023-02-27T10:39:31.735Z,67.22
2023-02-27T10:42:03.896Z,66.90
2023-02-27T10:44:32.090Z,66.09
2023-02-27T10:46:59.841Z,66.20
2023-02-27T10:49:29.934Z,66.71
2023-02-27T10:52:10.553Z,66.00
2023-02-27T10:54:40.148Z,66.90
2023-02-27T10:57:19.829Z,66.61
2023-02-27T10:59:52.746Z,66.62
2023-02-27T11:02:23.686Z,66.25
2023-02-27T11:04:54.502Z,65.31
2023-02-27T11:07:31.210Z,63.95
2023-02-27T11:10:16.730Z,64.26
2023-02-27T11:12:58.688Z,65.27
2023-02-27T11:15:27.998Z,65.15
2023-02-27T11:17:55.837Z,65.99
2023-02-27T11:20:35.367Z,65.77
2023-02-27T11:23:05.103Z,64.80
2023-02-27T11:25:34.557Z,65.69
2023-02-27T11:28:22.234Z,65.59
2023-02-27T11:30:58.145Z,65.50
2023-02-27T11:33:26.211Z,65.47
2023-02-27T11:35:57.568Z,65.02
2023-02-27T11:38:27.473Z,65.26
2023-02-27T11:40:57.710Z,65.03
2023-02-27T11:43:26.925Z,65.15
2023-02-27T11:46:05.218Z,65.05
2023-02-27T11:48:49.855Z,64.85
2023-02-27T11:51:33.774Z,64.54
2023-02-27T11:54:16.706Z,63.91
2023-02-27T11:56:48.114Z,63.10
2023-02-27T11:59:26.744Z,62.39
2023-02-27T12:01:57.470Z,62.76
2023-02-27T12:04:28.396Z,62.43
2023-02-27T12:06:59.266Z,62.88
2023-02-27T12:09:39.917Z,62.27
2023-02-27T12:12:16.960Z,62.03
2023-02-27T12:14:48.513Z,62.23
2023-02-27T12:17:22.262Z,61.99
2023-02-27T12:20:00.629Z,61.77
2023-02-27T12:22:31.802Z,61.96
2023-02-27T12:25:03.292Z,62.69
2023-02-27T12:27:39.189Z,61.90
2023-02-27T12:30:11.466Z,62.01
2023-02-27T12:32:44.285Z,61.55
2023-02-27T12:35:16.922Z,61.24
2023-02-27T12:37:44.526Z,61.41
2023-02-27T12:40:16.147Z,60.21
2023-02-27T12:43:15.594Z,60.66
2023-02-27T12:45:56.431Z,60.23
2023-02-27T12:48:39.959Z,60.64
2023-02-27T12:51:17.617Z,61.52
2023-02-27T12:54:01.857Z,61.51
2023-02-27T12:56:38.123Z,60.75
2023-02-27T12:59:13.642Z,60.38
2023-02-27T13:01:49.569Z,59.97
2023-02-27T13:04:24.830Z,59.93
2023-02-27T13:06:54.735Z,59.57
2023-02-27T13:09:34.882Z,59.45
2023-02-27T13:12:09.839Z,59.37
2023-02-27T13:14:47.083Z,60.16
2023-02-27T13:17:19.598Z,60.21
2023-02-27T13:19:52.973Z,60.85
2023-02-27T13:22:27.207Z,59.97
2023-02-27T13:24:57.372Z,59.57
2023-02-27T13:27:28.703Z,59.19
2023-02-27T13:30:09.529Z,57.60
2023-02-27T13:32:44.512Z,57.84
2023-02-27T13:35:25.680Z,58.23
2023-02-27T13:37:55.353Z,57.44
2023-02-27T13:40:31.865Z,57.28
2023-02-27T13:43:02.062Z,56.98
2023-02-27T13:45:50.766Z,56.30
2023-02-27T13:48:37.829Z,55.93
2023-02-27T13:51:06.483Z,56.85
2023-02-27T13:53:34.740Z,57.16
2023-02-27T13:56:20.645Z,56.81
2023-02-27T13:58:48.696Z,56.18
2023-02-27T14:01:20.088Z,56.12
2023-02-27T14:03:54.623Z,56.34
2023-02-27T14:06:22.919Z,55.11
2023-02-27T14:08:52.201Z,53.61
2023-02-27T14:11:23.353Z,54.38
2023-02-27T14:14:30.137Z,54.14
2023-02-27T14:17:01.522Z,54.21
2023-02-27T14:19:57.123Z,53.82
2023-02-27T14:22:41.098Z,52.32
2023-02-27T14:25:19.909Z,53.40
2023-02-27T14:27:51.097Z,52.94
2023-02-27T14:30:30.575Z,52.90
2023-02-27T14:33:02.673Z,52.05
2023-02-27T14:35:31.298Z,51.96
2023-02-27T14:38:01.269Z,52.10
2023-02-27T14:40:32.726Z,52.21
2023-02-27T14:43:06.616Z,52.16
2023-02-27T14:45:34.243Z,51.96
2023-02-27T14:48:03.372Z,51.89
2023-02-27T14:50:34.251Z,52.07
2023-02-27T14:53:02.542Z,52.18
2023-02-27T14:55:31.435Z,52.60
2023-02-27T14:58:02.305Z,53.10
2023-02-27T15:00:35.985Z,52.69
2023-02-27T15:03:15.165Z,51.90
2023-02-27T15:05:48.977Z,52.45
2023-02-27T15:08:18.783Z,52.11
2023-02-27T15:10:46.783Z,51.25
2023-02-27T15:13:24.075Z,50.64
2023-02-27T15:15:56.945Z,51.10
2023-02-27T15:18:27.340Z,51.08
2023-02-27T15:20:59.318Z,51.34
2023-02-27T15:23:28.850Z,51.72
2023-02-27T15:25:58.027Z,51.07
2023-02-27T15:28:27.974Z,51.23
2023-02-27T15:30:57.231Z,51.34
2023-02-27T15:33:29.688Z,51.88
2023-02-27T15:35:57.818Z,51.46
2023-02-27T15:38:27.915Z,51.84
2023-02-27T15:40:55.803Z,52.40
2023-02-27T15:43:23.879Z,53.08
2023-02-27T15:45:52.735Z,53.39
2023-02-27T15:48:20.878Z,53.43
2023-02-27T15:50:53.937Z,53.50
2023-02-27T15:53:23.701Z,52.41
2023-02-27T15:55:52.700Z,53.30
2023-02-27T15:58:25.401Z,53.58
2023-02-27T16:01:00.693Z,53.02
2023-02-27T16:03:32.941Z,52.51
2023-02-27T16:06:02.390Z,52.72
2023-02-27T16:08:31.495Z,52.75
2023-02-27T16:10:59.112Z,52.83
2023-02-27T16:13:34.984Z,52.69
2023-02-27T16:16:04.098Z,52.57
2023-02-27T16:18:35.355Z,52.39
2023-02-27T16:21:12.772Z,52.82
2023-02-27T16:23:40.645Z,53.02
2023-02-27T16:26:24.132Z,53.52
2023-02-27T16:28:53.625Z,54.15
2023-02-27T16:31:28.548Z,54.32
2023-02-27T16:33:57.840Z,53.56
2023-02-27T16:36:28.447Z,52.88
2023-02-27T16:38:56.507Z,52.76
2023-02-27T16:41:25.219Z,52.92
2023-02-27T16:43:54.661Z,53.21
2023-02-27T16:46:22.610Z,53.32
2023-02-27T16:48:52.000Z,53.73
2023-02-27T16:51:23.737Z,53.94
2023-02-27T16:53:53.794Z,54.29
2023-02-27T16:56:35.909Z,54.57
2023-02-27T16:59:05.232Z,54.81
2023-02-27T17:01:34.207Z,54.74
2023-02-27T17:04:02.487Z,56.14
2023-02-27T17:06:30.964Z,56.61
2023-02-27T17:09:00.122Z,57.23
2023-02-27T17:11:27.818Z,57.66
2023-02-27T17:13:55.463Z,57.95
2023-02-27T17:16:23.258Z,57.71
2023-02-27T17:18:50.946Z,57.62
2023-02-27T17:21:18.655Z,58.04
2023-02-27T17:23:46.403Z,57.97
2023-02-27T17:26:15.856Z,58.19
2023-02-27T17:28:43.729Z,57.85
2023-02-27T17:31:11.880Z,58.22
2023-02-27T17:33:39.481Z,58.52
2023-02-27T17:36:09.394Z,58.88
2023-02-27T17:38:38.109Z,59.11
2023-02-27T17:41:08.021Z,58.85
2023-02-27T17:43:37.166Z,58.88
2023-02-27T17:46:06.896Z,59.27
2023-02-27T17:48:35.454Z,59.44
2023-02-27T17:51:06.619Z,59.49
2023-02-27T17:53:35.534Z,59.42
2023-02-27T17:56:03.602Z,59.33
2023-02-27T17:58:31.671Z,59.16
2023-02-27T18:01:06.005Z,59.41
2023-02-27T18:03:33.828Z,59.31
2023-02-27T18:06:02.132Z,59.82
2023-02-27T18:08:29.786Z,59.59
2023-02-27T18:10:57.319Z,60.01
2023-02-27T18:13:26.578Z,59.77
2023-02-27T18:15:54.502Z,59.99
2023-02-27T18:18:24.148Z,60.42
2023-02-27T18:21:00.732Z,59.72
2023-02-27T18:23:28.407Z,59.50
2023-02-27T18:25:56.673Z,58.58
2023-02-27T18:28:24.838Z,57.93
2023-02-27T18:30:52.684Z,57.63
2023-02-27T18:33:20.606Z,57.62
2023-02-27T18:35:50.082Z,58.29
2023-02-27T18:38:17.703Z,58.33
2023-02-27T18:40:45.537Z,57.47
2023-02-27T18:43:13.749Z,57.60
2023-02-27T18:45:41.778Z,57.97
2023-02-27T18:48:11.126Z,58.25
2023-02-27T18:50:38.701Z,58.31
2023-02-27T18:53:07.615Z,59.02
2023-02-27T18:55:35.889Z,59.19
2023-02-27T18:58:04.663Z,59.48
2023-02-27T19:00:33.709Z,60.10
2023-02-27T19:03:01.439Z,59.99
2023-02-27T19:05:29.003Z,60.29
2023-02-27T19:07:57.388Z,60.51
2023-02-27T19:10:26.380Z,60.71
2023-02-27T19:12:53.990Z,61.44
2023-02-27T19:15:21.866Z,61.66
2023-02-27T19:17:49.531Z,61.75
2023-02-27T19:20:18.511Z,62.11
2023-02-27T19:22:46.106Z,62.76
2023-02-27T19:25:13.769Z,63.83
2023-02-27T19:27:44.690Z,63.68
2023-02-27T19:30:13.172Z,63.97
2023-02-27T19:32:40.840Z,64.16
2023-02-27T19:35:12.433Z,64.62
2023-02-27T19:37:40.533Z,65.16
2023-02-27T19:40:09.753Z,64.81
2023-02-27T19:42:37.530Z,65.17
2023-02-27T19:45:07.593Z,65.34
2023-02-27T19:47:37.159Z,64.86
2023-02-27T19:50:05.254Z,65.52
2023-02-27T19:52:32.816Z,65.40
2023-02-27T19:55:00.431Z,65.62
2023-02-27T19:57:28.618Z,66.12
2023-02-27T19:59:56.261Z,66.14
2023-02-27T20:02:26.316Z,66.43
2023-02-27T20:04:54.623Z,67.03
2023-02-27T20:07:22.752Z,66.89
2023-02-27T20:09:50.742Z,66.99
2023-02-27T20:12:18.362Z,67.75
2023-02-27T20:14:45.946Z,67.20
2023-02-27T20:17:14.112Z,67.35
2023-02-27T20:19:43.122Z,67.27
2023-02-27T20:22:13.467Z,67.33
2023-02-27T20:24:41.256Z,67.04
2023-02-27T20:27:08.895Z,67.16
2023-02-27T20:29:36.537Z,67.56
2023-02-27T20:32:05.165Z,67.44
2023-02-27T20:34:33.005Z,67.47
2023-02-27T20:37:03.172Z,67.78
2023-02-27T20:39:30.770Z,67.45
2023-02-27T20:41:58.485Z,67.77
2023-02-27T20:44:26.086Z,67.45
2023-02-27T20:46:53.987Z,67.21
2023-02-27T20:49:22.692Z,67.02
2023-02-27T20:51:50.445Z,66.86
2023-02-27T20:54:20.638Z,66.85
2023-02-27T20:56:51.868Z,66.52
2023-02-27T20:59:21.638Z,66.36
2023-02-27T21:01:52.197Z,66.50
2023-02-27T21:04:21.422Z,66.32
2023-02-27T21:06:49.367Z,66.30
2023-02-27T21:09:17.032Z,66.05
2023-02-27T21:11:46.117Z,66.45
2023-02-27T21:14:14.473Z,66.74
2023-02-27T21:16:42.134Z,66.33
2023-02-27T21:19:09.772Z,66.61
2023-02-27T21:21:37.588Z,66.52
2023-02-27T21:24:06.340Z,66.78
2023-02-27T21:26:35.965Z,66.75
2023-02-27T21:29:07.594Z,67.01
2023-02-27T21:31:36.071Z,67.33
2023-02-27T21:34:06.810Z,67.73
2023-02-27T21:36:36.297Z,67.99
2023-02-27T21:39:06.079Z,68.46
2023-02-27T21:41:34.685Z,68.49
2023-02-27T21:44:03.448Z,69.05
2023-02-27T21:46:33.289Z,69.83
2023-02-27T21:49:01.583Z,70.25
2023-02-27T21:51:39.976Z,71.03
2023-02-27T21:54:10.824Z,71.40
2023-02-27T21:56:39.270Z,71.68
2023-02-27T21:59:06.929Z,72.17
2023-02-27T22:01:36.434Z,72.53
2023-02-27T22:04:04.524Z,73.05
2023-02-27T22:06:33.872Z,72.75
2023-02-27T22:09:04.365Z,73.23
2023-02-27T22:11:32.566Z,73.45
2023-02-27T22:14:00.219Z,73.33
2023-02-27T22:16:28.014Z,74.04
2023-02-27T22:18:57.057Z,74.16
2023-02-27T22:21:27.040Z,74.78
2023-02-27T22:23:55.548Z,74.94
2023-02-27T22:26:25.198Z,75.36
2023-02-27T22:28:53.569Z,75.08
2023-02-27T22:31:22.528Z,75.54
2023-02-27T22:33:52.230Z,75.80
2023-02-27T22:36:22.396Z,76.11
2023-02-27T22:38:50.337Z,76.87
2023-02-27T22:41:20.403Z,77.46
2023-02-27T22:43:48.222Z,76.97
2023-02-27T22:46:18.437Z,77.35
2023-02-27T22:48:46.049Z,77.35
2023-02-27T22:51:15.642Z,77.46
2023-02-27T22:53:45.986Z,78.34
2023-02-27T22:56:16.055Z,78.18
2023-02-27T22:58:45.086Z,78.43
2023-02-27T23:01:14.369Z,78.35
2023-02-27T23:03:42.630Z,78.54
2023-02-27T23:06:11.939Z,78.22
2023-02-27T23:08:39.933Z,78.12
2023-02-27T23:11:09.733Z,77.98
2023-02-27T23:13:37.514Z,78.14
2023-02-27T23:16:11.242Z,78.27
2023-02-27T23:18:39.732Z,77.88
2023-02-27T23:21:07.914Z,78.17
2023-02-27T23:23:35.955Z,77.76
2023-02-27T23:26:05.636Z,77.99
2023-02-27T23:28:36.671Z,77.72
2023-02-27T23:31:04.392Z,77.90
2023-02-27T23:33:32.595Z,77.57
2023-02-27T23:36:00.853Z,77.78
2023-02-27T23:38:29.377Z,78.04
2023-02-27T23:40:57.063Z,78.18
2023-02-27T23:43:42.562Z,79.17
2023-02-27T23:46:12.858Z,78.94
2023-02-27T23:48:41.180Z,78.84
2023-02-27T23:51:09.873Z,78.60
2023-02-27T23:53:40.096Z,78.60
2023-02-27T23:56:14.061Z,78.89
2023-02-27T23:58:41.903Z,79.22
